Time;durP1;ratioP1;P1;durP2;ratioP2;P2;SDS_P1;SDS_P2;PMS_P1;PMS_P2;Temp;Humidity;BMP_temperature;BMP_pressure;BME280_temperature;BME280_humidity;BME280_pressure;Samples;Min_cycle;Max_cycle;Signal;HPM_P1;HPM_P2
2023/08/19 00:02:10;;;;;;;0.10;0.10;;;13.90;56.20;;;;;;5073401;28;20240;-58
2023/08/19 00:04:40;;;;;;;0.10;0.10;;;13.90;56.20;;;;;;5073552;28;20195;-58
2023/08/19 00:07:13;;;;;;;0.10;0.10;;;13.90;56.20;;;;;;5073905;28;20223;-59
2023/08/19 00:09:43;;;;;;;0.10;0.10;;;13.90;56.20;;;;;;5072903;28;20280;-59
2023/08/19 00:12:14;;;;;;;0.10;0.10;;;13.90;56.30;;;;;;5073652;28;20638;-59
2023/08/19 00:14:45;;;;;;;0.10;0.10;;;13.90;56.30;;;;;;5074201;28;20256;-59
2023/08/19 00:17:16;;;;;;;0.10;0.10;;;13.90;56.30;;;;;;5074250;28;20219;-59
2023/08/19 00:19:46;;;;;;;0.10;0.10;;;13.90;56.30;;;;;;5074069;28;20278;-58
2023/08/19 00:22:19;;;;;;;0.10;0.10;;;14.00;56.40;;;;;;5074210;28;20199;-59
2023/08/19 00:24:50;;;;;;;0.10;0.10;;;14.00;56.30;;;;;;5073884;28;20220;-59
2023/08/19 00:27:20;;;;;;;0.00;0.00;;;14.00;56.30;;;;;;5073815;28;20682;-58
2023/08/19 00:29:51;;;;;;;0.10;0.10;;;14.00;56.40;;;;;;5070589;28;20230;-59
2023/08/19 00:32:21;;;;;;;0.10;0.10;;;14.00;56.20;;;;;;5073379;28;20268;-58
2023/08/19 00:34:52;;;;;;;0.10;0.10;;;14.00;56.20;;;;;;5082650;28;20252;-58
2023/08/19 00:37:24;;;;;;;0.10;0.10;;;14.00;56.20;;;;;;5073491;28;20218;-58
2023/08/19 00:39:55;;;;;;;0.10;0.10;;;14.00;56.30;;;;;;5073106;28;20195;-58
2023/08/19 00:42:25;;;;;;;0.10;0.10;;;14.00;56.30;;;;;;5073495;28;20194;-60
2023/08/19 00:44:56;;;;;;;0.10;0.10;;;14.00;56.30;;;;;;5087948;28;20719;-58
2023/08/19 00:47:28;;;;;;;0.17;0.17;;;14.00;56.30;;;;;;5084257;28;20271;-57
2023/08/19 00:49:58;;;;;;;0.10;0.10;;;14.10;56.30;;;;;;5074791;28;20264;-58
2023/08/19 00:52:31;;;;;;;0.10;0.10;;;14.10;56.30;;;;;;5072624;28;20199;-59
2023/08/19 00:55:01;;;;;;;0.10;0.10;;;14.10;56.30;;;;;;5068811;28;20723;-59
2023/08/19 00:57:33;;;;;;;0.20;0.20;;;14.10;56.20;;;;;;5072807;28;20215;-58
2023/08/19 01:00:05;;;;;;;0.10;0.10;;;14.10;56.20;;;;;;5073026;28;20284;-58
2023/08/19 01:02:35;;;;;;;0.10;0.10;;;14.10;56.30;;;;;;5072865;28;20647;-58
2023/08/19 01:05:06;;;;;;;0.10;0.10;;;14.10;56.30;;;;;;5073077;28;20191;-58
2023/08/19 01:07:47;;;;;;;0.10;0.10;;;14.20;56.30;;;;;;5073262;28;20268;-58
2023/08/19 01:10:26;;;;;;;0.20;0.20;;;14.10;56.20;;;;;;5073020;28;20702;-58
2023/08/19 01:13:05;;;;;;;0.10;0.10;;;14.20;56.30;;;;;;5072469;28;20229;-58
2023/08/19 01:15:38;;;;;;;0.10;0.10;;;14.20;56.20;;;;;;5072629;28;20281;-58
2023/08/19 01:18:09;;;;;;;0.10;0.10;;;14.20;56.20;;;;;;5072768;28;20214;-57
2023/08/19 01:20:42;;;;;;;0.10;0.10;;;14.20;56.30;;;;;;5072703;28;20191;-58
2023/08/19 01:23:19;;;;;;;0.10;0.10;;;14.20;56.30;;;;;;5072542;28;20259;-58
2023/08/19 01:25:52;;;;;;;0.20;0.20;;;14.20;56.40;;;;;;5072593;28;20198;-58
2023/08/19 01:28:23;;;;;;;0.10;0.10;;;14.20;56.30;;;;;;5072736;28;20277;-58
2023/08/19 01:30:54;;;;;;;0.10;0.10;;;14.30;56.40;;;;;;5072555;28;20226;-58
2023/08/19 01:33:24;;;;;;;0.10;0.10;;;14.30;56.40;;;;;;5072484;28;20244;-58
2023/08/19 01:36:03;;;;;;;0.10;0.10;;;14.30;56.40;;;;;;5072687;28;20260;-58
2023/08/19 01:38:39;;;;;;;0.10;0.10;;;14.30;56.30;;;;;;5072678;28;20217;-58
2023/08/19 01:41:15;;;;;;;0.00;0.00;;;14.30;56.30;;;;;;5072677;28;20711;-59
2023/08/19 01:43:47;;;;;;;0.10;0.10;;;14.40;56.30;;;;;;5072449;28;20191;-58
2023/08/19 01:46:17;;;;;;;0.15;0.15;;;14.40;56.30;;;;;;5071959;28;20198;-58
2023/08/19 01:48:48;;;;;;;0.10;0.10;;;14.40;56.30;;;;;;5072005;28;20707;-58
2023/08/19 01:51:19;;;;;;;0.10;0.10;;;14.40;56.30;;;;;;5072209;28;20288;-59
2023/08/19 01:53:49;;;;;;;0.10;0.10;;;14.40;56.30;;;;;;5071797;28;20202;-58
2023/08/19 01:56:22;;;;;;;0.10;0.10;;;14.40;56.30;;;;;;5072211;28;20252;-58
2023/08/19 01:58:52;;;;;;;0.10;0.10;;;14.40;56.30;;;;;;5072028;28;20248;-58
2023/08/19 02:01:23;;;;;;;0.10;0.10;;;14.50;56.30;;;;;;5072026;28;20251;-58
2023/08/19 02:03:53;;;;;;;0.10;0.10;;;14.50;56.40;;;;;;5071140;28;20245;-58
2023/08/19 02:06:24;;;;;;;0.10;0.10;;;14.50;56.40;;;;;;5071117;28;20206;-58
2023/08/19 02:08:54;;;;;;;0.10;0.10;;;14.50;56.40;;;;;;5071966;28;20202;-58
2023/08/19 02:11:26;;;;;;;0.10;0.10;;;14.50;56.30;;;;;;5071871;28;20755;-58
2023/08/19 02:13:57;;;;;;;0.10;0.10;;;14.50;56.30;;;;;;5071529;28;20594;-59
2023/08/19 02:16:28;;;;;;;0.10;0.10;;;14.50;56.30;;;;;;5071029;28;20186;-58
2023/08/19 02:19:00;;;;;;;0.10;0.10;;;14.60;56.30;;;;;;5071855;28;20194;-59
2023/08/19 02:21:31;;;;;;;0.10;0.10;;;14.60;56.30;;;;;;5071589;28;20195;-58
2023/08/19 02:24:02;;;;;;;0.10;0.10;;;14.60;56.30;;;;;;5071206;28;20226;-58
2023/08/19 02:26:34;;;;;;;0.10;0.10;;;14.60;56.30;;;;;;5071685;28;20198;-59
2023/08/19 02:29:05;;;;;;;0.10;0.10;;;14.60;56.40;;;;;;5071780;28;20190;-58
2023/08/19 02:31:35;;;;;;;0.10;0.10;;;14.70;56.40;;;;;;5071816;28;20233;-58
2023/08/19 02:34:06;;;;;;;0.10;0.10;;;14.60;56.40;;;;;;5071737;28;20199;-59
2023/08/19 02:36:36;;;;;;;0.10;0.10;;;14.70;56.40;;;;;;5071540;28;20194;-59
2023/08/19 02:39:07;;;;;;;0.10;0.10;;;14.70;56.40;;;;;;5071486;28;20191;-59
2023/08/19 02:41:40;;;;;;;0.10;0.10;;;14.70;56.40;;;;;;5071617;28;20252;-59
2023/08/19 02:44:10;;;;;;;0.10;0.10;;;14.70;56.40;;;;;;5071590;28;20243;-59
2023/08/19 02:46:41;;;;;;;0.10;0.10;;;14.70;56.40;;;;;;5071341;28;20251;-59
2023/08/19 02:49:11;;;;;;;0.00;0.00;;;14.70;56.40;;;;;;5071379;28;20194;-59
2023/08/19 02:51:42;;;;;;;0.10;0.10;;;14.70;56.40;;;;;;5071559;28;20280;-59
2023/08/19 02:54:14;;;;;;;0.10;0.10;;;14.80;56.40;;;;;;5071366;28;20244;-59
2023/08/19 02:56:47;;;;;;;0.10;0.10;;;14.80;56.40;;;;;;5071931;28;20264;-59
2023/08/19 02:59:17;;;;;;;0.10;0.10;;;14.80;56.40;;;;;;5071395;28;20191;-59
2023/08/19 03:01:48;;;;;;;0.10;0.10;;;14.80;56.40;;;;;;5071434;28;20203;-59
2023/08/19 03:04:18;;;;;;;0.10;0.10;;;14.80;56.30;;;;;;5071422;28;20244;-59
2023/08/19 03:06:49;;;;;;;0.10;0.10;;;14.80;56.30;;;;;;5071191;28;20218;-59
2023/08/19 03:09:20;;;;;;;0.10;0.10;;;14.90;56.30;;;;;;5074113;28;20199;-59
2023/08/19 03:11:52;;;;;;;0.10;0.10;;;14.90;56.30;;;;;;5075446;28;20226;-59
2023/08/19 03:14:23;;;;;;;0.10;0.10;;;14.90;56.30;;;;;;5075606;28;20199;-59
2023/08/19 03:16:54;;;;;;;0.08;0.08;;;14.90;56.30;;;;;;5074156;28;20275;-59
2023/08/19 03:19:25;;;;;;;0.10;0.10;;;14.90;56.30;;;;;;5074884;28;20191;-59
2023/08/19 03:21:55;;;;;;;0.10;0.10;;;14.90;56.30;;;;;;5075197;28;20240;-59
2023/08/19 03:24:27;;;;;;;0.10;0.10;;;14.90;56.40;;;;;;5074607;28;20195;-59
2023/08/19 03:26:59;;;;;;;0.10;0.10;;;14.90;56.40;;;;;;5074477;28;20573;-59
2023/08/19 03:29:30;;;;;;;0.10;0.10;;;14.90;56.30;;;;;;5074596;28;20199;-59
2023/08/19 03:32:00;;;;;;;0.10;0.10;;;14.90;56.30;;;;;;5074932;28;20271;-59
2023/08/19 03:34:31;;;;;;;0.10;0.10;;;15.00;56.40;;;;;;5074840;28;20658;-60
2023/08/19 03:37:01;;;;;;;0.10;0.10;;;15.00;56.30;;;;;;5074300;28;20616;-59
2023/08/19 03:39:32;;;;;;;0.10;0.10;;;15.00;56.30;;;;;;5074488;28;20659;-59
2023/08/19 03:42:04;;;;;;;0.10;0.10;;;15.00;56.30;;;;;;5074757;28;20720;-59
2023/08/19 03:44:35;;;;;;;0.10;0.10;;;15.00;56.30;;;;;;5074681;28;20248;-59
2023/08/19 03:47:05;;;;;;;0.10;0.10;;;15.00;56.30;;;;;;5074870;28;20222;-59
2023/08/19 03:49:36;;;;;;;0.10;0.10;;;15.00;56.20;;;;;;5074676;28;20678;-59
2023/08/19 03:52:07;;;;;;;0.10;0.10;;;15.00;56.30;;;;;;5074688;28;20268;-59
2023/08/19 03:54:38;;;;;;;0.10;0.10;;;15.10;56.30;;;;;;5074434;28;20608;-59
2023/08/19 03:57:11;;;;;;;0.20;0.20;;;15.10;56.30;;;;;;5074809;28;20218;-59
2023/08/19 03:59:41;;;;;;;0.10;0.10;;;15.10;56.30;;;;;;5073819;28;20240;-58
2023/08/19 04:02:12;;;;;;;0.10;0.10;;;15.10;56.30;;;;;;5073606;28;20210;-59
2023/08/19 04:05:00;;;;;;;0.10;0.10;;;15.10;56.30;;;;;;5073939;28;20194;-59
2023/08/19 04:07:31;;;;;;;0.10;0.10;;;15.10;56.40;;;;;;5074217;28;20280;-59
2023/08/19 04:10:02;;;;;;;0.10;0.10;;;15.10;56.30;;;;;;5073851;28;20617;-59
2023/08/19 04:12:36;;;;;;;0.20;0.20;;;15.10;56.20;;;;;;5073588;28;20237;-59
2023/08/19 04:15:08;;;;;;;0.10;0.10;;;15.10;56.20;;;;;;5073885;28;20617;-59
2023/08/19 04:17:39;;;;;;;0.10;0.10;;;15.10;56.20;;;;;;5073629;28;20612;-59
2023/08/19 04:20:10;;;;;;;0.10;0.10;;;15.10;56.10;;;;;;5052924;28;20651;-59
2023/08/19 04:22:44;;;;;;;0.10;0.10;;;15.10;56.10;;;;;;5054911;28;20207;-59
2023/08/19 04:25:15;;;;;;;0.10;0.10;;;15.20;56.20;;;;;;5073584;28;20245;-59
2023/08/19 04:27:47;;;;;;;0.08;0.08;;;15.20;56.20;;;;;;5073739;28;20218;-59
2023/08/19 04:30:18;;;;;;;0.10;0.10;;;15.20;56.30;;;;;;5073661;28;20651;-59
2023/08/19 04:32:48;;;;;;;0.10;0.10;;;15.20;56.30;;;;;;5074048;28;20195;-59
2023/08/19 04:35:19;;;;;;;0.10;0.10;;;15.20;56.20;;;;;;5073959;28;20198;-59
2023/08/19 04:37:50;;;;;;;0.10;0.10;;;15.20;56.30;;;;;;5073913;28;20215;-59
2023/08/19 04:40:20;;;;;;;0.10;0.10;;;15.30;56.30;;;;;;5073496;28;20198;-59
2023/08/19 04:42:53;;;;;;;0.10;0.10;;;15.30;56.30;;;;;;5073445;28;20264;-60
2023/08/19 04:45:24;;;;;;;0.10;0.10;;;15.30;56.30;;;;;;5073758;28;20194;-59
2023/08/19 04:47:54;;;;;;;0.10;0.10;;;15.30;56.30;;;;;;5073506;28;20294;-59
2023/08/19 04:50:25;;;;;;;0.03;0.03;;;15.30;56.30;;;;;;5073646;28;20202;-59
2023/08/19 04:52:55;;;;;;;0.10;0.10;;;15.30;56.20;;;;;;5073661;28;20206;-59
2023/08/19 04:55:26;;;;;;;0.10;0.10;;;15.40;56.30;;;;;;5073094;28;20191;-59
2023/08/19 04:57:58;;;;;;;0.10;0.10;;;15.40;56.20;;;;;;5073503;28;20222;-59
2023/08/19 05:00:29;;;;;;;0.10;0.10;;;15.40;56.20;;;;;;5073091;28;20328;-59
2023/08/19 05:03:00;;;;;;;0.10;0.10;;;15.40;56.20;;;;;;5072926;28;20199;-59
2023/08/19 05:05:30;;;;;;;0.10;0.10;;;15.40;56.20;;;;;;5072801;28;20229;-60
2023/08/19 05:08:01;;;;;;;0.10;0.10;;;15.50;56.30;;;;;;5072632;28;20280;-59
2023/08/19 05:10:31;;;;;;;0.10;0.10;;;15.50;56.20;;;;;;5072442;28;20190;-59
2023/08/19 05:13:03;;;;;;;0.10;0.10;;;15.50;56.20;;;;;;5072472;28;20271;-59
2023/08/19 05:15:35;;;;;;;0.03;0.03;;;15.50;56.20;;;;;;5072918;28;20344;-59
2023/08/19 05:18:06;;;;;;;0.10;0.10;;;15.60;56.20;;;;;;5072780;28;20268;-60
2023/08/19 05:20:36;;;;;;;0.10;0.10;;;15.60;56.20;;;;;;5073048;28;20203;-59
2023/08/19 05:23:07;;;;;;;0.10;0.10;;;15.60;56.20;;;;;;5072271;28;20202;-59
2023/08/19 05:25:37;;;;;;;0.20;0.20;;;15.60;56.20;;;;;;5072797;28;20248;-59
2023/08/19 05:28:10;;;;;;;0.10;0.10;;;15.60;56.20;;;;;;5073180;28;20215;-59
2023/08/19 05:30:41;;;;;;;0.00;0.00;;;15.60;56.10;;;;;;5072572;28;20191;-59
2023/08/19 05:33:11;;;;;;;0.10;0.10;;;15.60;56.10;;;;;;5072915;28;20198;-59
2023/08/19 05:35:42;;;;;;;0.10;0.10;;;15.60;56.10;;;;;;5072388;28;20199;-59
2023/08/19 05:38:12;;;;;;;0.00;0.00;;;15.60;56.00;;;;;;5072504;28;20223;-59
2023/08/19 05:40:43;;;;;;;0.10;0.10;;;15.60;56.60;;;;;;5072109;28;20604;-59
2023/08/19 05:43:16;;;;;;;0.10;0.10;;;15.60;56.00;;;;;;5072257;28;20287;-59
2023/08/19 05:45:46;;;;;;;0.10;0.10;;;15.70;55.90;;;;;;5072490;28;20198;-59
2023/08/19 05:48:17;;;;;;;0.10;0.10;;;15.70;55.90;;;;;;5072426;28;20223;-59
2023/08/19 05:50:49;;;;;;;0.10;0.10;;;15.70;55.90;;;;;;5072331;28;20207;-59
2023/08/19 05:53:19;;;;;;;0.10;0.10;;;15.70;55.90;;;;;;5071285;28;20199;-60
2023/08/19 05:55:50;;;;;;;0.10;0.10;;;15.70;55.90;;;;;;5071852;28;20260;-58
2023/08/19 05:58:22;;;;;;;0.10;0.10;;;15.70;55.90;;;;;;5070441;28;20222;-59
2023/08/19 06:01:00;;;;;;;0.10;0.10;;;15.70;55.90;;;;;;5072045;28;20252;-59
2023/08/19 06:03:30;;;;;;;0.10;0.10;;;15.70;55.90;;;;;;5072635;28;20194;-59
2023/08/19 06:06:05;;;;;;;0.10;0.10;;;15.70;55.80;;;;;;5072452;28;20659;-59
2023/08/19 06:08:36;;;;;;;0.10;0.10;;;15.70;55.70;;;;;;5072048;28;20218;-60
2023/08/19 06:11:08;;;;;;;0.00;0.00;;;15.70;55.60;;;;;;5071975;28;20210;-59
2023/08/19 06:13:41;;;;;;;0.10;0.10;;;15.70;55.60;;;;;;5069230;28;20201;-59
2023/08/19 06:16:11;;;;;;;0.08;0.08;;;15.70;55.50;;;;;;5071520;28;20229;-59
2023/08/19 06:18:42;;;;;;;0.10;0.10;;;15.70;55.50;;;;;;5072144;28;20215;-59
2023/08/19 06:21:12;;;;;;;0.08;0.08;;;15.70;55.40;;;;;;5071629;28;20195;-59
2023/08/19 06:23:43;;;;;;;0.10;0.10;;;15.70;55.40;;;;;;5071570;28;20256;-59
2023/08/19 06:26:13;;;;;;;0.10;0.10;;;15.70;55.30;;;;;;5068849;28;20246;-59
2023/08/19 06:28:46;;;;;;;0.10;0.10;;;15.70;55.30;;;;;;5063146;28;20627;-59
2023/08/19 06:31:16;;;;;;;0.10;0.10;;;15.70;55.30;;;;;;5071873;28;20223;-59
2023/08/19 06:33:47;;;;;;;0.10;0.10;;;15.70;55.40;;;;;;5068791;28;20191;-59
2023/08/19 06:36:24;;;;;;;0.10;0.10;;;15.70;55.50;;;;;;5051406;28;20536;-59
2023/08/19 06:39:06;;;;;;;0.10;0.10;;;15.60;55.40;;;;;;5051652;28;20195;-59
2023/08/19 06:41:39;;;;;;;0.10;0.10;;;15.60;55.40;;;;;;5051617;28;20195;-59
2023/08/19 06:44:11;;;;;;;0.10;0.10;;;15.70;55.40;;;;;;5050872;28;20257;-59
2023/08/19 06:46:43;;;;;;;0.10;0.10;;;15.60;55.30;;;;;;5051508;28;20203;-59
2023/08/19 06:49:14;;;;;;;0.10;0.10;;;15.60;55.30;;;;;;5051448;28;20199;-59
2023/08/19 06:51:45;;;;;;;0.03;0.03;;;15.60;55.20;;;;;;5051012;28;20227;-60
2023/08/19 06:54:16;;;;;;;0.00;0.00;;;15.60;55.20;;;;;;5051183;28;20606;-59
2023/08/19 06:56:53;;;;;;;0.10;0.10;;;15.60;55.20;;;;;;5058649;28;20230;-60
2023/08/19 06:59:34;;;;;;;0.10;0.10;;;15.60;55.30;;;;;;5071375;28;20650;-60
2023/08/19 07:02:06;;;;;;;0.10;0.10;;;15.70;55.30;;;;;;5066769;28;20203;-60
2023/08/19 07:04:37;;;;;;;0.10;0.10;;;15.70;55.30;;;;;;5051371;28;20659;-60
2023/08/19 07:07:10;;;;;;;0.10;0.10;;;15.60;55.20;;;;;;5051284;28;20278;-60
2023/08/19 07:09:41;;;;;;;0.10;0.10;;;15.60;55.20;;;;;;5051165;28;20191;-60
2023/08/19 07:12:13;;;;;;;0.10;0.10;;;15.60;55.20;;;;;;5050977;28;20569;-59
2023/08/19 07:14:46;;;;;;;0.10;0.10;;;15.60;55.20;;;;;;5050460;28;20793;-60
2023/08/19 07:17:20;;;;;;;0.10;0.10;;;15.60;55.20;;;;;;5050565;28;20689;-60
2023/08/19 07:19:54;;;;;;;0.10;0.10;;;15.60;55.30;;;;;;5050897;28;20206;-60
2023/08/19 07:22:25;;;;;;;0.00;0.00;;;15.60;55.30;;;;;;5051368;28;20199;-60
2023/08/19 07:24:57;;;;;;;0.10;0.10;;;15.60;55.30;;;;;;5051153;28;20191;-60
2023/08/19 07:27:28;;;;;;;0.10;0.10;;;15.60;55.30;;;;;;5062904;28;20287;-59
2023/08/19 07:30:01;;;;;;;0.10;0.10;;;15.60;55.20;;;;;;5070837;28;20199;-60
2023/08/19 07:32:34;;;;;;;0.10;0.10;;;15.60;55.20;;;;;;5071105;28;20694;-60
2023/08/19 07:35:05;;;;;;;0.10;0.10;;;15.60;55.20;;;;;;5071435;28;20195;-60
2023/08/19 07:37:36;;;;;;;0.10;0.10;;;15.60;55.20;;;;;;5068658;28;20225;-60
2023/08/19 07:40:09;;;;;;;0.00;0.00;;;15.60;55.10;;;;;;5070894;28;20282;-60
2023/08/19 07:42:40;;;;;;;0.10;0.10;;;15.60;55.10;;;;;;5070682;28;20564;-59
2023/08/19 07:45:14;;;;;;;0.00;0.00;;;15.60;55.10;;;;;;5071352;28;20191;-60
2023/08/19 07:47:44;;;;;;;0.10;0.10;;;15.50;55.10;;;;;;5071047;28;20225;-60
2023/08/19 07:50:15;;;;;;;0.10;0.10;;;15.50;55.10;;;;;;5070755;28;20195;-60
2023/08/19 07:52:46;;;;;;;0.10;0.10;;;15.60;55.10;;;;;;5070280;28;20223;-60
2023/08/19 07:55:16;;;;;;;0.10;0.10;;;15.50;55.10;;;;;;5073128;28;20198;-60
2023/08/19 07:57:47;;;;;;;0.10;0.10;;;15.50;55.10;;;;;;5073667;28;20219;-60
2023/08/19 08:00:20;;;;;;;0.10;0.10;;;15.50;55.20;;;;;;5074533;28;20241;-60
2023/08/19 08:02:51;;;;;;;0.10;0.10;;;15.50;55.20;;;;;;5074408;28;20195;-60
2023/08/19 08:05:22;;;;;;;0.10;0.10;;;15.60;55.30;;;;;;5074018;28;20264;-59
2023/08/19 08:07:53;;;;;;;0.00;0.00;;;15.50;55.20;;;;;;5073627;28;20217;-60
2023/08/19 08:10:23;;;;;;;0.10;0.10;;;15.50;55.20;;;;;;5074018;28;20186;-60
2023/08/19 08:12:54;;;;;;;0.10;0.10;;;15.50;55.20;;;;;;5073432;28;20222;-60
2023/08/19 08:15:26;;;;;;;0.10;0.10;;;15.50;55.20;;;;;;5074190;28;20197;-59
2023/08/19 08:17:57;;;;;;;0.00;0.00;;;15.50;55.20;;;;;;5073626;28;20210;-60
2023/08/19 08:20:29;;;;;;;0.10;0.10;;;15.50;55.10;;;;;;5073897;28;20256;-60
2023/08/19 08:22:59;;;;;;;0.10;0.10;;;15.50;55.10;;;;;;5074363;28;20218;-60
2023/08/19 08:25:31;;;;;;;0.10;0.10;;;15.50;55.20;;;;;;5073160;28;20203;-60
2023/08/19 08:28:02;;;;;;;0.10;0.10;;;15.50;55.20;;;;;;5072472;28;20222;-60
2023/08/19 08:30:34;;;;;;;0.00;0.00;;;15.50;55.20;;;;;;5073754;28;20190;-60
2023/08/19 08:33:05;;;;;;;0.00;0.00;;;15.50;55.20;;;;;;5074104;28;20227;-60
2023/08/19 08:35:35;;;;;;;0.10;0.10;;;15.50;55.20;;;;;;5073775;28;20202;-60
2023/08/19 08:38:06;;;;;;;0.10;0.10;;;15.50;55.80;;;;;;5073888;28;20272;-60
2023/08/19 08:40:38;;;;;;;0.10;0.10;;;15.50;55.20;;;;;;5073938;28;20195;-60
2023/08/19 08:43:10;;;;;;;0.10;0.10;;;15.50;55.20;;;;;;5072952;28;20761;-60
2023/08/19 08:45:43;;;;;;;0.00;0.00;;;15.50;55.20;;;;;;5073718;28;20202;-60
2023/08/19 08:48:16;;;;;;;0.10;0.10;;;15.50;55.20;;;;;;5073432;28;20219;-60
2023/08/19 08:50:47;;;;;;;0.00;0.00;;;15.50;55.30;;;;;;5073382;28;20225;-59
2023/08/19 08:53:18;;;;;;;0.10;0.10;;;15.50;55.30;;;;;;5073613;28;20221;-58
2023/08/19 08:55:49;;;;;;;0.10;0.10;;;15.50;55.30;;;;;;5073395;28;20647;-59
2023/08/19 08:58:21;;;;;;;0.08;0.08;;;15.50;55.30;;;;;;5068781;28;20211;-60
2023/08/19 09:00:55;;;;;;;0.10;0.10;;;15.50;55.30;;;;;;5071810;28;20276;-60
2023/08/19 09:03:32;;;;;;;0.10;0.10;;;15.50;55.30;;;;;;5072317;28;20207;-60
2023/08/19 09:06:10;;;;;;;0.10;0.10;;;15.50;55.40;;;;;;5071849;28;20202;-60
2023/08/19 09:08:48;;;;;;;0.10;0.10;;;15.50;55.40;;;;;;5072277;28;20214;-60
2023/08/19 09:11:24;;;;;;;0.00;0.00;;;15.50;55.30;;;;;;5072302;28;20689;-60
2023/08/19 09:14:01;;;;;;;0.10;0.10;;;15.50;55.30;;;;;;5071750;28;20225;-60
2023/08/19 09:16:34;;;;;;;0.10;0.10;;;15.50;55.30;;;;;;5072213;28;20252;-60
2023/08/19 09:19:05;;;;;;;0.10;0.10;;;15.50;55.30;;;;;;5072169;28;20612;-60
2023/08/19 09:21:36;;;;;;;0.00;0.00;;;15.50;55.30;;;;;;5072354;28;20248;-60
2023/08/19 09:24:07;;;;;;;0.10;0.10;;;15.50;55.30;;;;;;5072219;28;20195;-60
2023/08/19 09:26:40;;;;;;;0.10;0.10;;;15.50;55.30;;;;;;5071576;28;20206;-60
2023/08/19 09:29:10;;;;;;;0.17;0.17;;;15.50;55.30;;;;;;5072675;28;20661;-60
2023/08/19 09:31:43;;;;;;;0.10;0.10;;;15.50;55.30;;;;;;5072095;28;20198;-60
2023/08/19 09:34:18;;;;;;;0.10;0.10;;;15.50;55.30;;;;;;5071340;28;20204;-61
2023/08/19 09:36:48;;;;;;;0.03;0.03;;;15.50;55.30;;;;;;5072047;28;20243;-60
2023/08/19 09:39:20;;;;;;;0.10;0.10;;;15.50;55.30;;;;;;5071991;28;20191;-60
2023/08/19 09:41:51;;;;;;;0.00;0.00;;;15.50;55.30;;;;;;5071115;28;20199;-60
2023/08/19 09:44:21;;;;;;;0.00;0.00;;;15.40;55.20;;;;;;5071664;28;20236;-60
2023/08/19 09:46:54;;;;;;;0.08;0.08;;;15.50;55.30;;;;;;5071558;28;20268;-60
2023/08/19 09:49:25;;;;;;;0.10;0.10;;;15.40;55.20;;;;;;5070926;28;20191;-60
2023/08/19 09:51:59;;;;;;;0.03;0.03;;;15.40;55.30;;;;;;5071634;28;20195;-60
2023/08/19 09:54:30;;;;;;;0.10;0.10;;;15.40;55.30;;;;;;5064545;28;20221;-60
2023/08/19 09:57:01;;;;;;;0.00;0.00;;;15.40;55.30;;;;;;5070970;28;20284;-60
2023/08/19 09:59:31;;;;;;;0.10;0.10;;;15.40;55.20;;;;;;5065390;28;20201;-60
2023/08/19 10:02:04;;;;;;;0.10;0.10;;;15.40;55.30;;;;;;5070769;28;20198;-60
2023/08/19 10:04:35;;;;;;;0.08;0.08;;;15.40;55.30;;;;;;5070999;28;20190;-60
2023/08/19 10:07:09;;;;;;;0.10;0.10;;;15.40;55.20;;;;;;5071506;28;20218;-60
2023/08/19 10:09:42;;;;;;;0.08;0.08;;;15.40;55.30;;;;;;5071781;28;20251;-60
2023/08/19 10:12:15;;;;;;;0.10;0.10;;;15.40;55.30;;;;;;5070225;28;20199;-60
2023/08/19 10:14:48;;;;;;;0.10;0.10;;;15.40;55.30;;;;;;5071911;28;20226;-60
2023/08/19 10:17:23;;;;;;;0.10;0.10;;;15.40;55.30;;;;;;5070335;28;20271;-60
2023/08/19 10:20:00;;;;;;;0.10;0.10;;;15.40;55.30;;;;;;5070662;28;20199;-60
2023/08/19 10:22:34;;;;;;;0.10;0.10;;;15.40;55.30;;;;;;5070745;28;20199;-60
2023/08/19 10:25:06;;;;;;;0.00;0.00;;;15.40;55.40;;;;;;5080002;28;20199;-60
2023/08/19 10:27:37;;;;;;;0.08;0.08;;;15.40;55.30;;;;;;5069376;28;20215;-60
2023/08/19 10:30:31;;;;;;;0.10;0.10;;;15.40;55.30;;;;;;5085540;28;20190;-60
2023/08/19 10:33:27;;;;;;;0.05;0.05;;;15.40;55.30;;;;;;5091569;28;20538;-60
2023/08/19 10:36:04;;;;;;;0.03;0.03;;;15.40;55.20;;;;;;5051141;28;20203;-60
2023/08/19 10:38:45;;;;;;;0.10;0.10;;;15.40;55.20;;;;;;5053894;28;20608;-60
2023/08/19 10:41:26;;;;;;;0.10;0.10;;;15.40;55.30;;;;;;5070051;28;20198;-60
2023/08/19 10:44:04;;;;;;;0.08;0.08;;;15.40;55.30;;;;;;5077856;28;20648;-60
2023/08/19 10:46:35;;;;;;;0.10;0.10;;;15.40;55.30;;;;;;5091204;28;20193;-60
2023/08/19 10:49:09;;;;;;;0.10;0.10;;;15.40;55.30;;;;;;5090242;28;20240;-60
2023/08/19 10:52:00;;;;;;;0.10;0.10;;;15.40;55.30;;;;;;5090781;28;20243;-61
2023/08/19 10:54:35;;;;;;;0.20;0.20;;;15.40;55.30;;;;;;5061635;28;20219;-60
2023/08/19 10:57:15;;;;;;;0.10;0.10;;;15.40;55.30;;;;;;5070712;28;20221;-60
2023/08/19 10:59:47;;;;;;;0.10;0.10;;;15.40;55.30;;;;;;5070714;28;20190;-60
2023/08/19 11:02:18;;;;;;;0.03;0.03;;;15.40;55.30;;;;;;5070881;28;20195;-60
2023/08/19 11:04:51;;;;;;;0.00;0.00;;;15.40;55.30;;;;;;5070767;28;20198;-60
2023/08/19 11:07:22;;;;;;;0.10;0.10;;;15.40;55.30;;;;;;5070581;28;20222;-60
2023/08/19 11:09:54;;;;;;;0.10;0.10;;;15.30;55.30;;;;;;5070517;28;20241;-60
2023/08/19 11:12:26;;;;;;;0.10;0.10;;;15.30;55.30;;;;;;5070243;28;20601;-60
2023/08/19 11:14:57;;;;;;;0.10;0.10;;;15.40;55.30;;;;;;5070839;28;20195;-60
2023/08/19 11:17:31;;;;;;;0.00;0.00;;;15.40;55.30;;;;;;5070949;28;20215;-60
2023/08/19 11:20:12;;;;;;;0.10;0.10;;;15.40;55.30;;;;;;5070248;28;20240;-60
2023/08/19 11:22:46;;;;;;;0.08;0.08;;;15.40;55.30;;;;;;5070593;28;20214;-60
2023/08/19 11:25:17;;;;;;;0.10;0.10;;;15.40;55.30;;;;;;5070041;28;20190;-60
2023/08/19 11:27:48;;;;;;;0.10;0.10;;;15.40;55.30;;;;;;5070249;28;20272;-60
2023/08/19 11:30:19;;;;;;;0.10;0.10;;;15.40;55.30;;;;;;5072005;28;20639;-60
2023/08/19 11:32:50;;;;;;;0.10;0.10;;;15.40;55.40;;;;;;5074861;28;20219;-60
2023/08/19 11:35:22;;;;;;;0.00;0.00;;;15.40;55.40;;;;;;5074443;28;20217;-60
2023/08/19 11:37:52;;;;;;;0.10;0.10;;;15.30;55.90;;;;;;5074212;28;20619;-60
2023/08/19 11:40:23;;;;;;;0.10;0.10;;;15.40;55.40;;;;;;5073711;28;20638;-60
2023/08/19 11:42:54;;;;;;;0.00;0.00;;;15.30;55.40;;;;;;5073726;28;20198;-60
2023/08/19 11:45:25;;;;;;;0.10;0.10;;;15.40;55.40;;;;;;5074319;28;20592;-60
2023/08/19 11:47:55;;;;;;;0.10;0.10;;;15.30;55.30;;;;;;5074003;28;20260;-60
2023/08/19 11:50:29;;;;;;;0.10;0.10;;;15.40;56.00;;;;;;5074414;28;20194;-60
2023/08/19 11:53:00;;;;;;;0.10;0.10;;;15.30;55.30;;;;;;5073856;28;20594;-60
2023/08/19 11:55:31;;;;;;;0.15;0.15;;;15.30;55.30;;;;;;5073482;28;20187;-60
2023/08/19 11:58:05;;;;;;;0.10;0.10;;;15.40;55.40;;;;;;5072961;28;20260;-60
2023/08/19 12:00:35;;;;;;;0.10;0.10;;;15.30;55.30;;;;;;5074391;28;20198;-61
2023/08/19 12:03:06;;;;;;;0.10;0.10;;;15.40;55.30;;;;;;5074135;28;20199;-60
2023/08/19 12:05:38;;;;;;;0.10;0.10;;;15.40;55.50;;;;;;5073912;28;20206;-60
2023/08/19 12:08:09;;;;;;;0.10;0.10;;;15.40;55.40;;;;;;5074342;28;20268;-60
2023/08/19 12:10:43;;;;;;;0.10;0.10;;;15.40;55.40;;;;;;5074891;28;20653;-60
2023/08/19 12:13:14;;;;;;;0.10;0.10;;;15.40;55.40;;;;;;5074062;28;20268;-60
2023/08/19 12:15:44;;;;;;;0.10;0.10;;;15.40;55.40;;;;;;5074113;28;20244;-60
2023/08/19 12:18:18;;;;;;;0.10;0.10;;;15.40;55.40;;;;;;5074224;28;20220;-61
2023/08/19 12:20:51;;;;;;;0.05;0.05;;;15.30;55.40;;;;;;5074275;28;20202;-60
2023/08/19 12:23:21;;;;;;;0.10;0.10;;;15.40;55.40;;;;;;5074162;28;20242;-60
2023/08/19 12:25:53;;;;;;;0.10;0.10;;;15.30;55.30;;;;;;5073706;28;20199;-61
2023/08/19 12:28:24;;;;;;;0.10;0.10;;;15.40;55.40;;;;;;5053334;28;20691;-61
2023/08/19 12:30:55;;;;;;;0.00;0.00;;;15.30;55.30;;;;;;5059329;28;20187;-60
2023/08/19 12:33:26;;;;;;;0.10;0.10;;;15.30;55.30;;;;;;5073556;28;20214;-61
2023/08/19 12:35:58;;;;;;;0.10;0.10;;;15.40;55.40;;;;;;5073930;28;20195;-60
2023/08/19 12:38:29;;;;;;;0.10;0.10;;;15.30;55.40;;;;;;5073437;28;20694;-61
2023/08/19 12:40:59;;;;;;;0.10;0.10;;;15.40;55.40;;;;;;5072269;28;20191;-60
2023/08/19 12:43:30;;;;;;;0.10;0.10;;;15.30;55.30;;;;;;5073194;28;20256;-60
2023/08/19 12:46:00;;;;;;;0.10;0.10;;;15.30;55.30;;;;;;5073623;28;20198;-61
2023/08/19 12:48:31;;;;;;;0.10;0.10;;;15.30;55.30;;;;;;5073847;28;20272;-60
2023/08/19 12:51:03;;;;;;;0.10;0.10;;;15.30;55.90;;;;;;5073810;28;20245;-61
2023/08/19 12:53:34;;;;;;;0.08;0.08;;;15.30;55.30;;;;;;5074015;28;20548;-62
2023/08/19 12:56:05;;;;;;;0.10;0.10;;;15.30;55.30;;;;;;5073716;28;20194;-60
2023/08/19 12:58:35;;;;;;;0.10;0.10;;;15.30;55.30;;;;;;5073798;28;20223;-60
2023/08/19 13:01:06;;;;;;;0.10;0.10;;;15.30;55.30;;;;;;5073278;28;20593;-61
2023/08/19 13:03:37;;;;;;;0.10;0.10;;;15.30;55.30;;;;;;5073385;28;20289;-60
2023/08/19 13:06:09;;;;;;;0.10;0.10;;;15.30;55.30;;;;;;5073335;28;20315;-60
2023/08/19 13:08:42;;;;;;;0.10;0.10;;;15.30;55.30;;;;;;5073325;28;20277;-61
2023/08/19 13:11:12;;;;;;;0.10;0.10;;;15.30;55.30;;;;;;5073387;28;20210;-61
2023/08/19 13:13:43;;;;;;;0.10;0.10;;;15.30;55.30;;;;;;5072894;28;20627;-61